createdAt,value
2018-10-06T00:00:37.016Z,9.00
2018-10-06T00:03:06.232Z,12.87
2018-10-06T00:05:35.484Z,12.83
2018-10-06T00:08:04.715Z,9.50
2018-10-06T00:10:33.933Z,8.33
2018-10-06T00:13:03.164Z,11.83
2018-10-06T00:15:32.376Z,9.10
2018-10-06T00:18:01.576Z,8.67
2018-10-06T00:20:30.808Z,8.97
2018-10-06T00:23:00.004Z,9.47
2018-10-06T00:25:29.231Z,8.57
2018-10-06T00:27:58.465Z,7.97
2018-10-06T00:30:27.686Z,9.13
2018-10-06T00:32:56.973Z,7.37
2018-10-06T00:35:26.256Z,7.27
2018-10-06T00:37:55.718Z,7.17
2018-10-06T00:40:24.931Z,9.97
2018-10-06T00:42:54.152Z,9.40
2018-10-06T00:45:23.394Z,8.87
2018-10-06T00:47:52.598Z,9.47
2018-10-06T00:50:21.840Z,10.07
2018-10-06T00:52:51.056Z,13.17
2018-10-06T00:55:20.363Z,7.70
2018-10-06T00:57:49.577Z,11.17
2018-10-06T01:00:18.836Z,13.37
2018-10-06T01:02:48.070Z,16.53
2018-10-06T01:05:17.471Z,11.17
2018-10-06T01:07:46.709Z,11.23
2018-10-06T01:10:15.925Z,10.97
2018-10-06T01:12:45.141Z,14.40
2018-10-06T01:15:14.327Z,10.33
2018-10-06T01:17:43.553Z,13.73
2018-10-06T01:20:12.812Z,10.13
2018-10-06T01:22:42.076Z,13.03
2018-10-06T01:25:11.280Z,12.10
2018-10-06T01:27:40.537Z,13.13
2018-10-06T01:30:09.788Z,16.80
2018-10-06T01:32:39.008Z,10.77
2018-10-06T01:35:08.213Z,12.40
2018-10-06T01:37:45.039Z,11.70
2018-10-06T01:40:14.233Z,12.20
2018-10-06T01:42:44.228Z,11.80
2018-10-06T01:45:13.420Z,17.80
2018-10-06T01:47:42.609Z,11.50
2018-10-06T01:50:11.848Z,10.47
2018-10-06T01:52:41.046Z,9.30
2018-10-06T01:55:10.208Z,10.73
2018-10-06T01:57:39.397Z,12.93
2018-10-06T02:00:08.673Z,14.50
2018-10-06T02:02:37.857Z,16.67
2018-10-06T02:05:07.040Z,13.97
2018-10-06T02:07:36.296Z,16.23
2018-10-06T02:10:05.507Z,17.73
2018-10-06T02:12:34.696Z,13.97
2018-10-06T02:15:03.971Z,13.60
2018-10-06T02:17:33.175Z,15.20
2018-10-06T02:20:02.374Z,12.60
2018-10-06T02:22:31.592Z,13.33
2018-10-06T02:25:00.772Z,14.93
2018-10-06T02:27:29.986Z,12.43
2018-10-06T02:29:59.235Z,16.97
2018-10-06T02:32:28.473Z,16.27
2018-10-06T02:34:58.019Z,12.53
2018-10-06T02:37:27.444Z,13.67
2018-10-06T02:39:56.676Z,14.90
2018-10-06T02:42:25.903Z,18.83
2018-10-06T02:44:55.119Z,13.33
2018-10-06T02:47:24.334Z,15.27
2018-10-06T02:49:53.547Z,14.13
2018-10-06T02:52:22.898Z,14.23
2018-10-06T02:54:52.202Z,14.80
2018-10-06T02:57:21.419Z,14.73
2018-10-06T02:59:50.662Z,12.73
2018-10-06T03:02:19.884Z,13.63
2018-10-06T03:04:49.141Z,13.17
2018-10-06T03:07:18.363Z,13.53
2018-10-06T03:09:47.587Z,17.07
2018-10-06T03:12:16.788Z,12.33
2018-10-06T03:14:45.998Z,10.70
2018-10-06T03:17:15.200Z,11.80
2018-10-06T03:19:44.425Z,14.67
2018-10-06T03:22:13.727Z,14.60
2018-10-06T03:24:42.959Z,10.90
2018-10-06T03:27:12.176Z,10.97
2018-10-06T03:29:41.393Z,13.80
2018-10-06T03:32:10.595Z,14.40
2018-10-06T03:34:39.815Z,10.27
2018-10-06T03:37:09.070Z,12.37
2018-10-06T03:39:38.300Z,14.43
2018-10-06T03:42:07.560Z,11.73
2018-10-06T03:44:36.799Z,15.90
2018-10-06T03:47:06.151Z,14.90
2018-10-06T03:49:35.372Z,16.23
2018-10-06T03:52:04.583Z,21.73
2018-10-06T03:54:33.965Z,21.33
2018-10-06T03:57:03.555Z,25.27
2018-10-06T03:59:33.043Z,19.37
2018-10-06T04:02:02.477Z,17.63
2018-10-06T04:04:31.820Z,17.27
2018-10-06T04:07:01.138Z,19.43
2018-10-06T04:09:30.359Z,16.40
2018-10-06T04:11:59.582Z,16.33
2018-10-06T04:14:28.839Z,15.60
2018-10-06T04:16:58.126Z,18.73
2018-10-06T04:19:27.344Z,16.00
2018-10-06T04:21:56.643Z,16.77
2018-10-06T04:24:25.889Z,19.13
2018-10-06T04:26:55.103Z,17.53
2018-10-06T04:29:24.386Z,25.07
2018-10-06T04:31:53.607Z,19.53
2018-10-06T04:34:22.828Z,20.23
2018-10-06T04:36:52.143Z,20.87
2018-10-06T04:39:38.143Z,18.53
2018-10-06T04:42:07.555Z,16.53
2018-10-06T04:44:36.907Z,21.83
2018-10-06T04:47:06.239Z,17.60
2018-10-06T04:49:35.468Z,19.23
2018-10-06T04:52:04.770Z,17.73
2018-10-06T04:54:34.065Z,15.17
2018-10-06T04:57:03.275Z,16.77
2018-10-06T04:59:32.480Z,17.00
2018-10-06T05:02:01.680Z,17.47
2018-10-06T05:04:30.917Z,18.27
2018-10-06T05:07:00.144Z,15.53
2018-10-06T05:09:29.351Z,17.47
2018-10-06T05:11:58.549Z,18.17
2018-10-06T05:14:27.741Z,19.20
2018-10-06T05:16:56.940Z,18.87
2018-10-06T05:19:26.168Z,18.47
2018-10-06T05:21:55.407Z,20.10
2018-10-06T05:24:24.608Z,16.30
2018-10-06T05:26:53.814Z,18.80
2018-10-06T05:29:23.022Z,15.80
2018-10-06T05:31:52.256Z,22.70
2018-10-06T05:34:21.678Z,17.90
2018-10-06T05:36:51.007Z,18.50
2018-10-06T05:39:20.234Z,19.17
2018-10-06T05:41:49.469Z,20.07
2018-10-06T05:44:18.689Z,19.40
2018-10-06T05:46:47.899Z,19.17
2018-10-06T05:49:17.102Z,19.13
2018-10-06T05:51:46.324Z,21.20
2018-10-06T05:54:15.543Z,22.00
2018-10-06T05:56:44.759Z,21.47
2018-10-06T05:59:13.982Z,21.13
2018-10-06T06:01:43.187Z,19.97
2018-10-06T06:04:12.433Z,21.07
2018-10-06T06:06:41.651Z,21.83
2018-10-06T06:09:10.866Z,17.17
2018-10-06T06:11:40.123Z,22.00
2018-10-06T06:14:09.301Z,19.17
2018-10-06T06:16:38.509Z,18.93
2018-10-06T06:19:07.727Z,19.27
2018-10-06T06:21:36.961Z,21.17
2018-10-06T06:24:06.176Z,21.10
2018-10-06T06:26:35.377Z,23.77
2018-10-06T06:29:04.577Z,20.30
2018-10-06T06:31:33.819Z,23.33
2018-10-06T06:34:03.050Z,21.77
2018-10-06T06:36:32.255Z,21.23
2018-10-06T06:39:01.464Z,25.10
2018-10-06T06:41:30.781Z,21.90
2018-10-06T06:44:00.030Z,25.70
2018-10-06T06:46:29.240Z,20.60
2018-10-06T06:48:58.455Z,22.03
2018-10-06T06:51:27.679Z,25.47
2018-10-06T06:53:56.885Z,24.93
2018-10-06T06:56:26.149Z,28.73
2018-10-06T06:58:55.407Z,26.80
2018-10-06T07:01:24.677Z,29.63
2018-10-06T07:03:53.893Z,26.37
2018-10-06T07:06:23.164Z,25.63
2018-10-06T07:08:52.373Z,33.83
2018-10-06T07:11:21.584Z,34.03
2018-10-06T07:13:50.897Z,31.77
2018-10-06T07:16:20.117Z,29.90
2018-10-06T07:18:49.387Z,32.50
2018-10-06T07:21:18.603Z,26.03
2018-10-06T07:23:47.820Z,25.77
2018-10-06T07:26:17.055Z,26.73
2018-10-06T07:28:46.277Z,34.10
2018-10-06T07:31:15.468Z,31.07
2018-10-06T07:33:44.679Z,28.07
2018-10-06T07:36:13.948Z,30.87
2018-10-06T07:38:43.171Z,28.47
2018-10-06T07:41:12.449Z,27.83
2018-10-06T07:43:41.688Z,27.50
2018-10-06T07:46:10.948Z,28.93
2018-10-06T07:48:40.183Z,27.53
2018-10-06T07:51:09.407Z,30.43
2018-10-06T07:53:38.779Z,30.23
2018-10-06T07:56:08.080Z,26.67
2018-10-06T07:58:37.352Z,29.80
2018-10-06T08:01:06.612Z,23.80
2018-10-06T08:03:35.915Z,26.70
2018-10-06T08:06:05.198Z,23.57
2018-10-06T08:08:34.527Z,27.33
2018-10-06T08:11:03.756Z,26.10
2018-10-06T08:13:32.992Z,26.67
2018-10-06T08:16:02.233Z,26.10
2018-10-06T08:18:31.468Z,22.87
2018-10-06T08:21:00.708Z,21.43
2018-10-06T08:23:29.965Z,23.60
2018-10-06T08:25:59.200Z,22.13
2018-10-06T08:28:28.443Z,21.67
2018-10-06T08:30:57.668Z,22.57
2018-10-06T08:33:26.940Z,20.60
2018-10-06T08:35:56.172Z,21.70
2018-10-06T08:38:25.419Z,21.10
2018-10-06T08:40:54.615Z,21.37
2018-10-06T08:43:23.847Z,21.70
2018-10-06T08:45:53.073Z,23.90
2018-10-06T08:48:22.317Z,24.23
2018-10-06T08:50:51.531Z,20.23
2018-10-06T08:53:20.791Z,19.77
2018-10-06T08:55:50.051Z,20.67
2018-10-06T08:58:19.249Z,21.00
2018-10-06T09:00:48.475Z,17.83
2018-10-06T09:03:17.687Z,19.67
2018-10-06T09:05:46.901Z,19.33
2018-10-06T09:08:16.204Z,22.77
2018-10-06T09:10:45.452Z,22.50
2018-10-06T09:13:14.638Z,23.50
2018-10-06T09:15:43.851Z,22.40
2018-10-06T09:18:13.080Z,22.20
2018-10-06T09:20:42.346Z,19.50
2018-10-06T09:23:11.654Z,18.80
2018-10-06T09:25:40.889Z,21.27
2018-10-06T09:28:10.127Z,21.60
2018-10-06T09:30:39.309Z,21.33
2018-10-06T09:33:08.555Z,21.30
2018-10-06T09:35:37.767Z,18.90
2018-10-06T09:38:07.048Z,19.20
2018-10-06T09:40:36.243Z,23.10
2018-10-06T09:43:05.456Z,24.70
2018-10-06T09:45:34.727Z,23.83
2018-10-06T09:48:04.017Z,24.27
2018-10-06T09:50:33.224Z,19.83
2018-10-06T09:53:02.451Z,25.87
2018-10-06T09:55:31.699Z,24.10
2018-10-06T09:58:00.924Z,19.47
2018-10-06T10:00:35.354Z,25.17
2018-10-06T10:03:09.831Z,25.08
2018-10-06T10:05:44.530Z,23.02
2018-10-06T10:08:13.733Z,19.57
2018-10-06T10:10:42.933Z,21.42
2018-10-06T10:13:12.149Z,20.97
2018-10-06T10:15:41.378Z,24.18
2018-10-06T10:18:10.992Z,22.25
2018-10-06T10:20:40.088Z,19.25
2018-10-06T10:23:09.657Z,23.10
2018-10-06T10:25:39.130Z,20.77
2018-10-06T10:28:08.341Z,21.00
2018-10-06T10:30:37.557Z,20.55
2018-10-06T10:33:06.853Z,20.45
2018-10-06T10:35:36.095Z,27.30
2018-10-06T10:38:05.279Z,25.27
2018-10-06T10:40:34.520Z,25.90
2018-10-06T10:43:03.745Z,23.27
2018-10-06T10:45:32.999Z,22.15
2018-10-06T10:48:02.237Z,22.20
2018-10-06T10:50:31.536Z,19.73
2018-10-06T10:53:00.756Z,22.67
2018-10-06T10:55:30.080Z,18.80
2018-10-06T10:57:59.320Z,22.67
2018-10-06T11:00:28.655Z,20.40
2018-10-06T11:02:57.882Z,19.98
2018-10-06T11:05:27.112Z,19.98
2018-10-06T11:07:56.335Z,19.92
2018-10-06T11:10:25.587Z,25.30
2018-10-06T11:12:54.849Z,21.27
2018-10-06T11:15:24.149Z,20.43
2018-10-06T11:17:53.524Z,20.95
2018-10-06T11:20:22.763Z,16.97
2018-10-06T11:22:51.990Z,18.40
2018-10-06T11:25:21.229Z,18.15
2018-10-06T11:27:50.455Z,21.50
2018-10-06T11:30:19.761Z,20.82
2018-10-06T11:32:49.227Z,23.57
2018-10-06T11:35:18.869Z,21.45
2018-10-06T11:37:48.271Z,21.90
2018-10-06T11:40:17.474Z,25.52
2018-10-06T11:42:46.724Z,21.40
2018-10-06T11:45:16.029Z,20.50
2018-10-06T11:47:45.324Z,20.23
2018-10-06T11:50:14.631Z,21.12
2018-10-06T11:52:43.831Z,21.85
2018-10-06T11:55:13.185Z,22.45
2018-10-06T11:57:42.436Z,21.83
2018-10-06T12:00:11.865Z,25.12
2018-10-06T12:02:41.064Z,25.80
2018-10-06T12:05:10.315Z,23.57
2018-10-06T12:07:39.957Z,24.87
2018-10-06T12:10:09.691Z,22.90
2018-10-06T12:12:38.972Z,24.85
2018-10-06T12:15:08.260Z,22.25
2018-10-06T12:17:37.544Z,25.85
2018-10-06T12:20:06.837Z,18.98
2018-10-06T12:22:36.079Z,25.33
2018-10-06T12:25:05.462Z,22.35
2018-10-06T12:27:34.747Z,19.40
2018-10-06T12:30:04.012Z,24.75
2018-10-06T12:32:33.286Z,17.70
2018-10-06T12:35:02.697Z,21.50
2018-10-06T12:37:32.012Z,17.35
2018-10-06T12:40:01.309Z,17.75
2018-10-06T12:42:30.552Z,16.97
2018-10-06T12:44:59.877Z,19.85
2018-10-06T12:47:29.359Z,19.12
2018-10-06T12:49:58.631Z,22.98
2018-10-06T12:52:27.892Z,20.23
2018-10-06T12:54:57.178Z,15.25
2018-10-06T12:57:26.418Z,18.35
2018-10-06T12:59:55.735Z,18.77
2018-10-06T13:02:24.995Z,20.40
2018-10-06T13:04:54.243Z,18.82
2018-10-06T13:07:23.568Z,18.75
2018-10-06T13:09:52.892Z,18.25
2018-10-06T13:12:22.305Z,16.48
2018-10-06T13:14:51.559Z,14.35
2018-10-06T13:17:20.791Z,16.17
2018-10-06T13:19:50.036Z,15.50
2018-10-06T13:22:19.364Z,16.00
2018-10-06T13:24:48.682Z,16.30
2018-10-06T13:27:17.967Z,14.07
2018-10-06T13:29:47.271Z,15.78
2018-10-06T13:32:16.643Z,17.30
2018-10-06T13:34:45.936Z,12.10
2018-10-06T13:37:15.235Z,14.43
2018-10-06T13:39:44.553Z,15.23
2018-10-06T13:42:13.831Z,14.33
2018-10-06T13:44:43.217Z,16.48
2018-10-06T13:47:12.497Z,15.28
2018-10-06T13:49:41.832Z,11.93
2018-10-06T13:52:11.248Z,13.18
2018-10-06T13:54:40.528Z,13.88
2018-10-06T13:57:10.700Z,13.22
2018-10-06T13:59:39.973Z,16.10
2018-10-06T14:02:09.287Z,13.53
2018-10-06T14:04:38.589Z,15.20
2018-10-06T14:07:07.909Z,14.10
2018-10-06T14:09:37.165Z,16.87
2018-10-06T14:12:06.533Z,14.60
2018-10-06T14:14:35.800Z,16.90
2018-10-06T14:17:05.066Z,12.95
2018-10-06T14:19:34.348Z,16.70
2018-10-06T14:22:03.689Z,16.53
2018-10-06T14:24:32.950Z,12.77
2018-10-06T14:27:02.376Z,13.37
2018-10-06T14:29:31.630Z,14.70
2018-10-06T14:32:00.915Z,13.13
2018-10-06T14:34:30.164Z,11.23
2018-10-06T14:36:59.471Z,10.23
2018-10-06T14:39:28.761Z,11.57
2018-10-06T14:41:58.153Z,11.50
2018-10-06T14:44:27.519Z,13.40
2018-10-06T14:46:56.700Z,12.93
2018-10-06T14:49:25.916Z,14.25
2018-10-06T14:51:55.180Z,12.13
2018-10-06T14:54:24.418Z,11.10
2018-10-06T14:56:53.698Z,11.80
2018-10-06T14:59:22.880Z,15.53
2018-10-06T15:01:52.151Z,11.17
2018-10-06T15:04:21.461Z,12.60
2018-10-06T15:06:50.718Z,10.70
2018-10-06T15:09:20.072Z,13.48
2018-10-06T15:11:49.344Z,13.60
2018-10-06T15:14:18.640Z,12.50
2018-10-06T15:16:47.843Z,12.07
2018-10-06T15:19:17.085Z,12.90
2018-10-06T15:21:46.401Z,13.27
2018-10-06T15:24:15.633Z,11.43
2018-10-06T15:26:44.836Z,8.33
2018-10-06T15:29:14.083Z,6.73
2018-10-06T15:31:43.328Z,10.90
2018-10-06T15:34:12.653Z,8.40
2018-10-06T15:36:41.959Z,8.05
2018-10-06T15:39:11.219Z,8.80
2018-10-06T15:41:40.437Z,7.03
2018-10-06T15:44:09.681Z,8.70
2018-10-06T15:46:39.145Z,7.77
2018-10-06T15:49:08.475Z,7.27
2018-10-06T15:51:37.682Z,8.33
2018-10-06T15:54:07.147Z,6.73
2018-10-06T15:56:36.435Z,7.90
2018-10-06T15:59:05.732Z,5.70
2018-10-06T16:01:34.973Z,6.57
2018-10-06T16:04:04.203Z,7.03
2018-10-06T16:06:33.488Z,6.30
2018-10-06T16:09:02.716Z,6.03
2018-10-06T16:11:31.928Z,7.00
2018-10-06T16:14:01.164Z,7.07
2018-10-06T16:16:30.372Z,8.20
2018-10-06T16:18:59.600Z,5.60
2018-10-06T16:21:28.867Z,9.93
2018-10-06T16:23:58.054Z,9.37
2018-10-06T16:26:27.294Z,6.33
2018-10-06T16:28:56.521Z,8.73
2018-10-06T16:31:25.723Z,7.77
2018-10-06T16:33:55.002Z,9.37
2018-10-06T16:36:24.281Z,9.60
2018-10-06T16:38:53.537Z,11.70
2018-10-06T16:41:22.767Z,27.77
2018-10-06T16:43:51.922Z,12.30
2018-10-06T16:46:21.204Z,8.27
2018-10-06T16:48:50.412Z,9.67
2018-10-06T16:51:19.629Z,8.13
2018-10-06T16:53:48.826Z,11.37
2018-10-06T16:56:18.431Z,13.80
2018-10-06T16:58:47.652Z,6.83
2018-10-06T17:01:17.094Z,9.93
2018-10-06T17:03:46.372Z,10.07
2018-10-06T17:06:15.748Z,9.10
2018-10-06T17:08:45.105Z,7.90
2018-10-06T17:11:14.514Z,8.17
2018-10-06T17:13:43.825Z,9.43
2018-10-06T17:16:13.039Z,11.37
2018-10-06T17:18:42.340Z,7.53
2018-10-06T17:21:11.535Z,8.50
2018-10-06T17:23:40.742Z,8.13
2018-10-06T17:26:09.958Z,8.57
2018-10-06T17:28:39.169Z,6.87
2018-10-06T17:31:08.484Z,10.83
2018-10-06T17:33:37.670Z,8.97
2018-10-06T17:36:06.924Z,8.90
2018-10-06T17:38:36.291Z,7.50
2018-10-06T17:41:05.551Z,11.50
2018-10-06T17:43:34.839Z,9.70
2018-10-06T17:46:04.153Z,10.07
2018-10-06T17:48:33.405Z,8.77
2018-10-06T17:51:02.654Z,9.97
2018-10-06T17:53:31.971Z,10.40
2018-10-06T17:56:01.235Z,11.13
2018-10-06T17:58:30.482Z,10.37
2018-10-06T18:00:59.725Z,7.63
2018-10-06T18:03:28.957Z,11.03
2018-10-06T18:05:58.271Z,8.70
2018-10-06T18:08:27.627Z,8.73
2018-10-06T18:10:56.872Z,12.63
2018-10-06T18:13:26.110Z,11.67
2018-10-06T18:15:55.425Z,12.87
2018-10-06T18:18:24.820Z,9.00
2018-10-06T18:20:54.251Z,8.93
2018-10-06T18:23:23.470Z,11.77
2018-10-06T18:25:52.751Z,10.60
2018-10-06T18:28:21.971Z,11.93
2018-10-06T18:30:51.235Z,11.33
2018-10-06T18:33:20.485Z,9.50
2018-10-06T18:35:49.809Z,10.00
2018-10-06T18:38:19.043Z,9.57
2018-10-06T18:40:48.276Z,13.77
2018-10-06T18:43:17.554Z,11.37
2018-10-06T18:45:46.776Z,12.03
2018-10-06T18:48:16.056Z,17.23
2018-10-06T18:50:45.269Z,15.80
2018-10-06T18:53:14.661Z,14.33
2018-10-06T18:55:44.037Z,16.87
2018-10-06T18:58:13.263Z,12.80
2018-10-06T19:00:42.634Z,12.93
2018-10-06T19:03:12.015Z,14.17
2018-10-06T19:05:41.167Z,13.00
2018-10-06T19:08:10.428Z,13.10
2018-10-06T19:10:39.728Z,13.30
2018-10-06T19:13:09.007Z,12.53
2018-10-06T19:15:38.349Z,15.67
2018-10-06T19:18:07.546Z,16.17
2018-10-06T19:20:36.803Z,12.20
2018-10-06T19:23:06.042Z,16.50
2018-10-06T19:25:35.339Z,12.63
2018-10-06T19:28:04.605Z,12.33
2018-10-06T19:30:33.820Z,17.83
2018-10-06T19:33:03.068Z,17.33
2018-10-06T19:35:32.319Z,16.10
2018-10-06T19:38:01.588Z,13.57
2018-10-06T19:40:30.863Z,16.43
2018-10-06T19:43:00.153Z,13.83
2018-10-06T19:45:29.443Z,12.57
2018-10-06T19:47:58.741Z,14.10
2018-10-06T19:50:27.965Z,15.73
2018-10-06T19:52:57.188Z,16.13
2018-10-06T19:55:26.447Z,14.97
2018-10-06T19:57:55.712Z,11.57
2018-10-06T20:00:25.034Z,12.97
2018-10-06T20:02:54.259Z,20.77
2018-10-06T20:05:23.572Z,14.53
2018-10-06T20:07:52.843Z,13.57
2018-10-06T20:10:22.071Z,16.03
2018-10-06T20:12:51.295Z,15.50
2018-10-06T20:15:20.562Z,20.13
2018-10-06T20:17:49.780Z,16.67
2018-10-06T20:20:19.004Z,15.53
2018-10-06T20:22:48.218Z,16.80
2018-10-06T20:25:17.436Z,14.13
2018-10-06T20:27:46.689Z,14.57
2018-10-06T20:30:15.914Z,15.40
2018-10-06T20:32:45.154Z,16.67
2018-10-06T20:35:14.386Z,14.73
2018-10-06T20:37:43.786Z,20.97
2018-10-06T20:40:13.091Z,13.70
2018-10-06T20:42:42.311Z,14.57
2018-10-06T20:45:11.539Z,15.10
2018-10-06T20:47:40.760Z,16.50
2018-10-06T20:50:09.982Z,13.87
2018-10-06T20:52:39.213Z,16.00
2018-10-06T20:55:08.478Z,14.10
2018-10-06T20:57:37.707Z,15.17
2018-10-06T21:00:08.156Z,18.00
2018-10-06T21:02:37.382Z,15.77
2018-10-06T21:05:06.627Z,15.40
2018-10-06T21:07:35.867Z,13.10
2018-10-06T21:10:05.108Z,14.80
2018-10-06T21:12:34.359Z,12.07
2018-10-06T21:15:03.654Z,13.93
2018-10-06T21:17:32.915Z,16.37
2018-10-06T21:20:02.156Z,21.17
2018-10-06T21:22:31.487Z,19.80
2018-10-06T21:25:00.703Z,20.40
2018-10-06T21:27:29.926Z,17.37
2018-10-06T21:29:59.159Z,16.43
2018-10-06T21:32:28.383Z,16.37
2018-10-06T21:34:57.596Z,17.80
2018-10-06T21:37:26.838Z,17.53
2018-10-06T21:39:56.090Z,15.20
2018-10-06T21:42:25.404Z,16.30
2018-10-06T21:44:54.623Z,17.90
2018-10-06T21:47:23.841Z,15.97
2018-10-06T21:49:53.092Z,17.87
2018-10-06T21:52:22.365Z,17.03
2018-10-06T21:54:51.567Z,19.87
2018-10-06T21:57:20.799Z,20.90
2018-10-06T21:59:50.024Z,19.80
2018-10-06T22:02:19.260Z,20.50
2018-10-06T22:04:48.529Z,17.53
2018-10-06T22:07:17.728Z,18.20
2018-10-06T22:09:46.935Z,19.37
2018-10-06T22:12:16.175Z,15.73
2018-10-06T22:14:45.405Z,15.00
2018-10-06T22:17:14.640Z,13.33
2018-10-06T22:19:43.874Z,14.50
2018-10-06T22:22:13.102Z,17.00
2018-10-06T22:24:42.339Z,14.80
2018-10-06T22:27:11.631Z,13.33
2018-10-06T22:29:40.857Z,16.57
2018-10-06T22:32:10.072Z,11.00
2018-10-06T22:34:39.304Z,14.30
2018-10-06T22:37:08.554Z,14.20
2018-10-06T22:39:37.808Z,15.60
2018-10-06T22:42:07.132Z,13.40
2018-10-06T22:44:36.433Z,13.17
2018-10-06T22:47:05.685Z,15.97
2018-10-06T22:49:34.995Z,16.47
2018-10-06T22:52:04.278Z,13.03
2018-10-06T22:54:33.583Z,12.63
2018-10-06T22:57:02.928Z,14.67
2018-10-06T22:59:32.137Z,13.30
2018-10-06T23:02:01.441Z,12.60
2018-10-06T23:04:30.695Z,13.57
2018-10-06T23:06:59.956Z,11.33
2018-10-06T23:09:29.227Z,12.63
2018-10-06T23:11:58.523Z,13.10
2018-10-06T23:14:27.764Z,13.40
2018-10-06T23:16:57.051Z,14.70
2018-10-06T23:19:26.354Z,18.30
2018-10-06T23:21:55.656Z,15.43
2018-10-06T23:24:24.921Z,13.23
2018-10-06T23:26:54.371Z,10.03
2018-10-06T23:29:23.895Z,12.83
2018-10-06T23:31:53.177Z,10.40
2018-10-06T23:34:22.457Z,12.03
2018-10-06T23:36:51.729Z,12.87
2018-10-06T23:39:21.047Z,12.33
2018-10-06T23:41:50.382Z,13.20
2018-10-06T23:44:19.653Z,13.10
2018-10-06T23:46:48.952Z,16.17
2018-10-06T23:49:18.194Z,14.30
2018-10-06T23:51:47.437Z,12.80
2018-10-06T23:54:16.687Z,12.80
2018-10-06T23:56:45.973Z,10.33
2018-10-06T23:59:15.219Z,12.03
